Time;durP1;ratioP1;P1;durP2;ratioP2;P2;SDS_P1;SDS_P2;PMS_P1;PMS_P2;Temp;Humidity;BMP_temperature;BMP_pressure;BME280_temperature;BME280_humidity;BME280_pressure;Samples;Min_cycle;Max_cycle;Signal;HPM_P1;HPM_P2
2022/04/02 00:00:37;;;;;;;4.25;1.85;;;3.00;70.70;;;;;;5008754;28;20022;-44
2022/04/02 00:03:04;;;;;;;5.70;1.63;;;3.00;71.00;;;;;;5009798;28;20056;-43
2022/04/02 00:05:32;;;;;;;6.78;1.92;;;3.00;71.30;;;;;;5008993;28;20073;-46
2022/04/02 00:08:01;;;;;;;6.15;2.78;;;3.00;71.80;;;;;;5008317;28;20041;-43
2022/04/02 00:10:27;;;;;;;6.72;2.00;;;3.00;71.00;;;;;;5008448;28;20064;-44
2022/04/02 00:12:56;;;;;;;4.07;1.83;;;3.00;70.70;;;;;;5009310;28;20419;-42
2022/04/02 00:15:25;;;;;;;3.50;1.50;;;3.00;70.80;;;;;;4996707;28;20037;-42
2022/04/02 00:17:52;;;;;;;5.68;2.10;;;3.00;71.40;;;;;;5006514;28;20034;-44
2022/04/02 00:20:19;;;;;;;6.70;2.08;;;3.00;70.70;;;;;;5008167;28;20583;-45
2022/04/02 00:25:32;;;;;;;4.82;1.98;;;3.00;71.00;;;;;;5011687;28;20053;-43
2022/04/02 00:27:59;;;;;;;4.05;2.00;;;2.90;71.50;;;;;;5011778;28;20103;-43
2022/04/02 00:30:27;;;;;;;5.15;2.50;;;2.90;72.10;;;;;;5012516;28;20136;-43
2022/04/02 00:32:54;;;;;;;5.65;2.10;;;2.90;72.40;;;;;;5012946;28;20071;-45
2022/04/02 00:35:21;;;;;;;5.72;2.42;;;2.90;73.10;;;;;;5013124;28;20034;-44
2022/04/02 00:37:49;;;;;;;4.40;2.00;;;2.90;73.00;;;;;;5013209;28;20029;-43
2022/04/02 00:40:17;;;;;;;3.67;2.10;;;2.90;72.80;;;;;;5012072;28;20358;-43
2022/04/02 00:42:47;;;;;;;5.00;1.87;;;2.90;73.20;;;;;;5013450;28;20387;-44
2022/04/02 00:45:14;;;;;;;5.28;1.85;;;2.90;73.60;;;;;;5012499;28;20120;-42
2022/04/02 00:47:41;;;;;;;4.93;2.08;;;2.80;73.60;;;;;;5011744;28;20042;-44
2022/04/02 00:50:07;;;;;;;5.25;2.22;;;2.90;74.00;;;;;;5011717;28;20037;-44
2022/04/02 00:52:34;;;;;;;3.72;1.80;;;2.90;73.90;;;;;;5012907;28;20033;-43
2022/04/02 00:55:02;;;;;;;4.72;2.20;;;2.90;73.90;;;;;;5013651;28;20424;-45
2022/04/02 00:57:31;;;;;;;8.00;2.15;;;2.90;73.90;;;;;;5013558;28;20026;-43
2022/04/02 00:59:58;;;;;;;3.60;1.75;;;2.90;74.00;;;;;;5013374;28;20033;-42
2022/04/02 01:02:25;;;;;;;7.13;2.67;;;2.80;74.50;;;;;;5013278;28;20018;-42
2022/04/02 01:04:54;;;;;;;5.55;2.40;;;2.80;74.60;;;;;;5013377;28;20021;-43
2022/04/02 01:07:21;;;;;;;5.15;2.08;;;2.80;75.10;;;;;;5013352;28;20048;-43
2022/04/02 01:09:52;;;;;;;6.05;1.95;;;2.80;74.50;;;;;;5013351;28;20337;-42
2022/04/02 01:12:27;;;;;;;3.97;2.00;;;2.80;74.20;;;;;;5013194;28;20359;-44
2022/04/02 01:14:54;;;;;;;4.88;1.92;;;2.90;73.60;;;;;;5013169;28;20351;-43
2022/04/02 01:17:22;;;;;;;5.10;2.70;;;2.90;74.10;;;;;;5013278;28;20052;-43
2022/04/02 01:19:51;;;;;;;7.40;2.28;;;2.90;74.60;;;;;;5013056;28;20025;-44
2022/04/02 01:22:19;;;;;;;4.30;1.90;;;2.80;74.80;;;;;;5013142;28;20030;-45
2022/04/02 01:24:46;;;;;;;7.50;2.10;;;2.80;74.70;;;;;;5012004;28;20049;-42
2022/04/02 01:27:12;;;;;;;6.20;2.03;;;2.90;74.80;;;;;;5011696;28;20033;-43
2022/04/02 01:29:37;;;;;;;4.90;2.50;;;2.80;74.70;;;;;;5011170;28;20021;-43
2022/04/02 01:32:04;;;;;;;4.57;2.15;;;2.80;75.30;;;;;;5010466;28;20466;-43
2022/04/02 01:34:32;;;;;;;5.90;2.67;;;2.70;75.40;;;;;;5011116;28;20336;-47
2022/04/02 01:36:57;;;;;;;3.15;1.90;;;2.80;75.90;;;;;;5009849;28;20030;-46
2022/04/02 01:39:24;;;;;;;8.55;2.22;;;2.70;76.10;;;;;;5011137;28;20352;-46
2022/04/02 01:41:51;;;;;;;5.95;2.50;;;2.70;76.40;;;;;;5011257;28;20038;-44
2022/04/02 01:44:17;;;;;;;5.65;2.90;;;2.60;76.30;;;;;;5011970;28;20111;-43
2022/04/02 01:46:44;;;;;;;8.82;3.08;;;2.70;76.60;;;;;;5011372;28;20124;-44
2022/04/02 01:49:12;;;;;;;5.35;2.28;;;2.70;76.70;;;;;;5010603;28;20116;-43
2022/04/02 01:51:39;;;;;;;5.07;2.17;;;2.70;77.10;;;;;;5011111;28;20113;-42
2022/04/02 01:54:04;;;;;;;4.55;2.97;;;2.70;77.20;;;;;;5011614;28;20497;-43
2022/04/02 01:56:32;;;;;;;5.80;2.75;;;2.70;77.20;;;;;;5011316;28;20030;-44
2022/04/02 01:59:00;;;;;;;6.05;2.72;;;2.70;77.10;;;;;;5011024;28;20030;-43
2022/04/02 02:01:27;;;;;;;6.75;2.78;;;2.70;76.90;;;;;;5011055;28;20034;-46
2022/04/02 02:03:55;;;;;;;5.20;2.40;;;2.70;76.80;;;;;;5011354;28;20033;-42
2022/04/02 02:06:22;;;;;;;4.97;2.40;;;2.70;76.50;;;;;;5010186;28;20036;-44
2022/04/02 02:08:50;;;;;;;4.68;2.63;;;2.70;76.40;;;;;;5010229;28;20030;-43
2022/04/02 02:11:15;;;;;;;5.85;2.08;;;2.70;75.80;;;;;;5000365;28;20034;-44
2022/04/02 02:13:41;;;;;;;7.20;2.40;;;2.70;76.60;;;;;;5011349;28;20025;-44
2022/04/02 02:16:08;;;;;;;5.40;2.28;;;2.70;76.60;;;;;;5011773;28;20038;-44
2022/04/02 02:18:35;;;;;;;5.30;1.98;;;2.60;76.60;;;;;;5010787;28;20014;-43
2022/04/02 02:21:02;;;;;;;5.43;2.10;;;2.70;76.80;;;;;;5011055;28;20447;-43
2022/04/02 02:23:30;;;;;;;5.38;2.05;;;2.60;76.70;;;;;;5010738;28;20466;-43
2022/04/02 02:25:57;;;;;;;9.25;2.65;;;2.60;76.80;;;;;;5010458;28;20057;-44
2022/04/02 02:28:26;;;;;;;6.88;2.17;;;2.60;76.70;;;;;;5011208;28;20026;-45
2022/04/02 02:30:52;;;;;;;4.72;2.42;;;2.60;76.40;;;;;;5011781;28;20053;-42
2022/04/02 02:36:05;;;;;;;6.28;2.45;;;2.50;76.40;;;;;;5011617;28;20464;-42
2022/04/02 02:38:32;;;;;;;7.30;2.75;;;2.50;76.80;;;;;;5011855;28;20036;-46
2022/04/02 02:40:58;;;;;;;4.60;2.10;;;2.50;76.70;;;;;;5011580;28;20034;-45
2022/04/02 02:43:23;;;;;;;7.88;2.33;;;2.50;76.70;;;;;;5011112;28;20103;-42
2022/04/02 02:45:50;;;;;;;6.03;2.50;;;2.50;76.90;;;;;;5011461;28;20026;-45
2022/04/02 02:48:17;;;;;;;5.97;2.65;;;2.50;77.20;;;;;;5011407;28;20112;-43
2022/04/02 02:50:46;;;;;;;6.38;2.50;;;2.50;77.20;;;;;;5011506;28;20025;-43
2022/04/02 02:53:14;;;;;;;8.30;2.42;;;2.40;77.50;;;;;;5011255;28;20503;-42
2022/04/02 02:55:42;;;;;;;5.38;2.20;;;2.40;77.70;;;;;;5011320;28;20422;-44
2022/04/02 02:58:09;;;;;;;4.47;1.92;;;2.40;77.50;;;;;;5010435;28;20368;-43
2022/04/02 03:00:35;;;;;;;5.22;2.63;;;2.40;77.90;;;;;;5008571;28;20044;-44
2022/04/02 03:03:01;;;;;;;6.28;2.35;;;2.40;78.00;;;;;;5009426;28;20083;-43
2022/04/02 03:05:29;;;;;;;7.00;2.28;;;2.30;78.10;;;;;;5010138;28;20062;-44
2022/04/02 03:07:55;;;;;;;6.05;2.25;;;2.30;78.40;;;;;;5009919;28;20452;-43
2022/04/02 03:10:29;;;;;;;5.97;2.58;;;2.30;78.50;;;;;;5009673;28;20076;-43
2022/04/02 03:12:58;;;;;;;6.60;2.10;;;2.30;78.40;;;;;;5003729;28;20112;-46
2022/04/02 03:15:25;;;;;;;6.80;2.40;;;2.30;78.40;;;;;;4992972;28;20057;-46
2022/04/02 03:17:54;;;;;;;8.90;2.67;;;2.40;78.30;;;;;;5009145;28;20289;-42
2022/04/02 03:20:21;;;;;;;8.00;2.90;;;2.30;77.60;;;;;;5010022;28;20045;-43
2022/04/02 03:22:49;;;;;;;6.65;2.67;;;2.40;77.00;;;;;;5009596;28;20054;-42
2022/04/02 03:25:21;;;;;;;9.32;2.47;;;2.40;77.40;;;;;;4993644;28;20066;-43
2022/04/02 03:27:48;;;;;;;6.28;1.92;;;2.40;77.60;;;;;;5009767;28;20034;-45
2022/04/02 03:30:18;;;;;;;7.63;2.53;;;2.40;77.80;;;;;;5009539;28;20439;-45
2022/04/02 03:32:46;;;;;;;5.28;2.90;;;2.40;77.80;;;;;;5009629;28;20025;-43
2022/04/02 03:35:17;;;;;;;12.02;4.70;;;2.40;78.10;;;;;;5009569;28;20030;-43
2022/04/02 03:37:46;;;;;;;6.13;2.53;;;2.40;78.40;;;;;;5010567;28;20057;-45
2022/04/02 03:40:21;;;;;;;5.83;2.90;;;2.40;78.60;;;;;;5010508;28;20022;-45
2022/04/02 03:42:50;;;;;;;5.95;3.13;;;2.30;78.40;;;;;;5010507;28;20032;-46
2022/04/02 03:45:19;;;;;;;4.72;2.22;;;2.30;77.70;;;;;;5010877;28;20041;-47
2022/04/02 03:47:46;;;;;;;7.63;3.30;;;2.40;77.40;;;;;;5010622;28;20029;-42
2022/04/02 03:50:14;;;;;;;6.32;2.88;;;2.30;77.50;;;;;;5011331;28;20466;-43
2022/04/02 03:52:41;;;;;;;7.03;2.55;;;2.30;77.70;;;;;;5008039;28;20557;-43
2022/04/02 03:55:09;;;;;;;6.40;2.80;;;2.30;77.30;;;;;;5000232;28;20110;-45
2022/04/02 03:57:35;;;;;;;5.95;2.58;;;2.40;77.20;;;;;;5003671;28;20025;-43
2022/04/02 04:00:06;;;;;;;6.57;2.50;;;2.40;77.20;;;;;;5007730;28;20034;-47
2022/04/02 04:02:37;;;;;;;6.80;2.70;;;2.30;77.10;;;;;;5010507;28;20029;-44
2022/04/02 04:05:08;;;;;;;5.28;2.30;;;2.40;77.00;;;;;;5009973;28;20034;-42
2022/04/02 04:07:39;;;;;;;6.47;2.28;;;2.40;77.30;;;;;;5009881;28;20399;-44
2022/04/02 04:10:07;;;;;;;8.77;2.45;;;2.40;77.50;;;;;;5010137;28;20025;-42
2022/04/02 04:12:34;;;;;;;6.15;2.45;;;2.30;77.20;;;;;;5010375;28;20026;-43
2022/04/02 04:15:00;;;;;;;8.07;2.72;;;2.40;77.30;;;;;;5006488;28;20101;-43
2022/04/02 04:17:29;;;;;;;9.18;2.55;;;2.40;77.40;;;;;;5010032;28;20026;-49
2022/04/02 04:19:55;;;;;;;6.88;2.58;;;2.40;77.90;;;;;;5010011;28;20034;-42
2022/04/02 04:22:22;;;;;;;7.03;2.67;;;2.40;78.30;;;;;;5010010;28;20037;-43
2022/04/02 04:24:49;;;;;;;4.65;1.92;;;2.40;78.30;;;;;;5009832;28;20471;-42
2022/04/02 04:27:20;;;;;;;4.93;2.35;;;2.40;78.20;;;;;;5010070;28;20141;-46
2022/04/02 04:29:48;;;;;;;5.38;2.72;;;2.40;78.40;;;;;;5010013;28;20029;-44
2022/04/02 04:32:14;;;;;;;7.10;2.83;;;2.40;78.30;;;;;;5008885;28;20076;-45
2022/04/02 04:34:42;;;;;;;4.82;2.25;;;2.40;78.30;;;;;;5008837;28;20469;-43
2022/04/02 04:37:10;;;;;;;5.63;2.55;;;2.40;77.90;;;;;;5007491;28;20410;-47
2022/04/02 04:39:37;;;;;;;7.03;2.47;;;2.40;77.90;;;;;;5008862;28;20065;-46
2022/04/02 04:42:08;;;;;;;6.63;2.65;;;2.50;78.30;;;;;;5008984;28;20030;-44
2022/04/02 04:44:35;;;;;;;3.78;2.20;;;2.40;78.30;;;;;;5008398;28;20104;-44
2022/04/02 04:47:01;;;;;;;8.25;2.60;;;2.50;78.30;;;;;;5009618;28;20030;-43
2022/04/02 04:49:29;;;;;;;6.70;2.47;;;2.50;78.60;;;;;;5009902;28;20026;-46
2022/04/02 04:51:56;;;;;;;3.88;2.05;;;2.40;78.90;;;;;;5007882;28;20455;-42
2022/04/02 04:54:22;;;;;;;5.97;2.60;;;2.40;79.00;;;;;;5009019;28;20117;-46
2022/04/02 04:56:48;;;;;;;4.57;2.40;;;2.40;78.90;;;;;;5008643;28;20105;-46
2022/04/02 04:59:16;;;;;;;10.32;3.00;;;2.40;78.80;;;;;;5008301;28;20457;-45
2022/04/02 05:01:43;;;;;;;5.07;2.58;;;2.50;78.90;;;;;;5007722;28;20025;-44
2022/04/02 05:04:11;;;;;;;11.13;2.70;;;2.50;78.90;;;;;;5008233;28;20029;-43
2022/04/02 05:06:40;;;;;;;7.40;2.90;;;2.50;78.50;;;;;;5009911;28;20040;-44
2022/04/02 05:09:06;;;;;;;11.43;4.37;;;2.50;78.50;;;;;;5008755;28;20057;-46
2022/04/02 05:11:34;;;;;;;7.25;2.00;;;2.50;78.70;;;;;;5011695;28;20284;-44
2022/04/02 05:14:04;;;;;;;9.30;2.92;;;2.50;78.40;;;;;;5010692;28;20042;-43
2022/04/02 05:16:31;;;;;;;6.00;2.58;;;2.60;78.40;;;;;;5012254;28;20463;-45
2022/04/02 05:18:56;;;;;;;6.30;3.15;;;2.60;78.60;;;;;;5011358;28;20442;-42
2022/04/02 05:21:22;;;;;;;5.40;2.85;;;2.70;78.60;;;;;;5012230;28;20058;-43
2022/04/02 05:23:49;;;;;;;4.97;2.58;;;2.70;78.60;;;;;;5012019;28;20036;-42
2022/04/02 05:26:16;;;;;;;5.70;2.25;;;2.60;78.90;;;;;;5012397;28;20479;-42
2022/04/02 05:28:45;;;;;;;8.90;5.07;;;2.70;78.30;;;;;;5011603;28;20442;-42
2022/04/02 05:31:11;;;;;;;4.47;2.47;;;2.70;78.40;;;;;;5011784;28;20443;-43
2022/04/02 05:33:39;;;;;;;7.68;2.65;;;2.70;77.80;;;;;;5012843;28;20049;-46
2022/04/02 05:36:06;;;;;;;7.20;2.50;;;2.70;77.70;;;;;;5012617;28;20026;-43
2022/04/02 05:38:33;;;;;;;7.78;2.58;;;2.70;78.10;;;;;;5012900;28;20022;-45
2022/04/02 05:41:01;;;;;;;4.95;2.17;;;2.80;78.30;;;;;;5012078;28;20018;-45
2022/04/02 05:43:27;;;;;;;6.22;2.30;;;2.80;78.30;;;;;;5012702;28;20452;-45
2022/04/02 05:45:55;;;;;;;7.22;2.60;;;2.80;78.20;;;;;;5011656;28;20052;-42
2022/04/02 05:48:21;;;;;;;5.88;2.13;;;2.90;78.30;;;;;;5012283;28;20069;-43
2022/04/02 05:50:48;;;;;;;10.48;2.83;;;2.90;78.60;;;;;;5012515;28;20543;-46
2022/04/02 05:53:17;;;;;;;8.25;3.38;;;2.90;78.60;;;;;;5012653;28;20045;-42
2022/04/02 05:55:46;;;;;;;7.53;2.88;;;2.90;78.70;;;;;;5012820;28;20087;-45
2022/04/02 05:58:14;;;;;;;10.38;2.55;;;3.00;78.70;;;;;;5011424;28;20200;-44
2022/04/02 06:00:41;;;;;;;6.65;3.83;;;3.10;78.50;;;;;;5011552;28;20026;-43
2022/04/02 06:03:14;;;;;;;3.90;2.13;;;3.20;78.20;;;;;;5011120;28;20052;-42
2022/04/02 06:05:41;;;;;;;5.35;2.30;;;3.20;78.20;;;;;;4994024;28;20058;-44
2022/04/02 06:08:10;;;;;;;4.43;2.35;;;3.20;77.70;;;;;;5010055;28;20045;-45
2022/04/02 06:10:36;;;;;;;11.32;2.75;;;3.30;77.60;;;;;;5010450;28;20049;-43
2022/04/02 06:13:04;;;;;;;4.00;2.08;;;3.40;77.90;;;;;;5010381;28;20042;-44
2022/04/02 06:15:31;;;;;;;3.55;1.80;;;3.40;78.00;;;;;;5009422;28;20806;-45
2022/04/02 06:17:57;;;;;;;5.07;1.92;;;3.40;77.90;;;;;;5010023;28;20097;-42
2022/04/02 06:20:24;;;;;;;6.55;2.65;;;3.50;77.40;;;;;;5008491;28;20105;-48
2022/04/02 06:22:52;;;;;;;7.50;2.45;;;3.60;77.20;;;;;;5009281;28;20026;-46
2022/04/02 06:25:19;;;;;;;6.90;2.33;;;3.70;77.50;;;;;;5010426;28;20050;-44
2022/04/02 06:27:48;;;;;;;5.45;2.30;;;3.80;77.40;;;;;;5009428;28;20034;-45
2022/04/02 06:30:21;;;;;;;6.97;2.60;;;3.80;77.00;;;;;;5011218;28;20037;-46
2022/04/02 06:32:50;;;;;;;7.72;3.38;;;3.90;77.00;;;;;;5009554;28;20058;-44
2022/04/02 06:35:19;;;;;;;6.28;2.15;;;3.90;76.70;;;;;;5010983;28;20022;-43
2022/04/02 06:37:48;;;;;;;4.78;2.25;;;3.90;76.70;;;;;;5010039;28;20075;-44
2022/04/02 06:40:18;;;;;;;4.80;2.35;;;4.00;76.30;;;;;;5009409;28;20436;-43
2022/04/02 06:42:45;;;;;;;;;;;4.00;76.50;;;;;;5010537;28;20053;-45
2022/04/02 06:45:11;;;;;;;8.98;2.63;;;4.00;77.00;;;;;;5010632;28;19912;-44
2022/04/02 06:47:39;;;;;;;6.15;2.60;;;4.00;76.90;;;;;;5008728;28;20109;-48
2022/04/02 06:50:10;;;;;;;5.25;2.80;;;4.00;77.10;;;;;;5010438;28;20087;-45
2022/04/02 06:52:36;;;;;;;7.90;2.15;;;4.00;77.10;;;;;;5008802;28;20038;-44
2022/04/02 06:55:17;;;;;;;5.43;2.15;;;4.00;76.70;;;;;;5010327;28;20026;-42
2022/04/02 06:58:02;;;;;;;5.15;2.28;;;4.00;76.60;;;;;;5010532;28;20442;-45
2022/04/02 07:00:28;;;;;;;7.20;2.30;;;4.10;76.10;;;;;;5008862;28;20029;-43
2022/04/02 07:02:54;;;;;;;6.80;2.50;;;4.10;76.00;;;;;;5009199;28;20037;-42
2022/04/02 07:05:21;;;;;;;11.38;2.95;;;4.10;75.30;;;;;;5010658;28;20041;-43
2022/04/02 07:07:49;;;;;;;6.20;2.45;;;4.20;74.90;;;;;;5010727;28;20018;-43
2022/04/02 07:10:15;;;;;;;10.70;2.83;;;4.20;75.20;;;;;;5011211;28;20333;-44
2022/04/02 07:12:43;;;;;;;4.63;2.47;;;4.30;75.50;;;;;;5011941;28;20060;-43
2022/04/02 07:15:10;;;;;;;13.68;3.17;;;4.30;74.20;;;;;;5010729;28;20029;-43
2022/04/02 07:17:38;;;;;;;10.55;2.83;;;4.30;74.40;;;;;;4992593;28;20039;-43
2022/04/02 07:20:06;;;;;;;21.23;4.95;;;4.40;73.90;;;;;;5009965;28;20040;-42
2022/04/02 07:22:35;;;;;;;8.15;3.88;;;4.40;73.60;;;;;;5009783;28;20375;-44
2022/04/02 07:25:06;;;;;;;5.25;2.00;;;4.50;73.30;;;;;;5006668;28;20057;-44
2022/04/02 07:27:34;;;;;;;6.68;2.55;;;4.50;73.20;;;;;;5010086;28;20100;-43
2022/04/02 07:30:01;;;;;;;5.35;2.15;;;4.60;72.90;;;;;;5007968;28;20451;-42
2022/04/02 07:32:29;;;;;;;7.53;2.03;;;4.60;73.30;;;;;;5009760;28;20025;-44
2022/04/02 07:35:05;;;;;;;4.38;2.47;;;4.80;73.50;;;;;;5007740;28;20034;-44
2022/04/02 07:37:55;;;;;;;6.47;2.25;;;4.70;73.00;;;;;;5008083;28;20025;-44
2022/04/02 07:40:29;;;;;;;4.80;1.73;;;4.90;72.70;;;;;;5008307;28;20042;-44
2022/04/02 07:43:12;;;;;;;3.45;1.98;;;5.10;73.30;;;;;;5008469;28;20402;-44
2022/04/02 07:45:47;;;;;;;5.53;2.00;;;5.30;72.10;;;;;;5009015;28;20073;-45
2022/04/02 07:48:26;;;;;;;10.38;3.40;;;5.50;71.50;;;;;;5007373;28;20121;-43
2022/04/02 07:50:53;;;;;;;8.13;2.27;;;5.90;69.60;;;;;;5008942;28;20026;-46
2022/04/02 07:53:22;;;;;;;5.63;2.65;;;6.10;69.00;;;;;;5007832;28;20608;-48
2022/04/02 07:55:56;;;;;;;4.55;1.92;;;6.40;68.30;;;;;;4992059;28;20025;-44
2022/04/02 07:58:28;;;;;;;3.75;2.10;;;6.70;67.50;;;;;;5007596;28;20060;-43
2022/04/02 08:00:58;;;;;;;4.60;1.90;;;6.90;66.50;;;;;;5005513;28;20026;-43
2022/04/02 08:03:24;;;;;;;3.60;2.05;;;7.20;64.70;;;;;;5007024;28;20061;-43
2022/04/02 08:06:08;;;;;;;5.38;2.15;;;7.20;64.80;;;;;;5008281;28;20077;-43
2022/04/02 08:08:40;;;;;;;4.70;1.45;;;7.30;65.40;;;;;;5007644;28;20030;-45
2022/04/02 08:11:12;;;;;;;6.80;2.13;;;7.30;63.80;;;;;;5007416;28;20034;-44
2022/04/02 08:13:43;;;;;;;3.35;1.95;;;7.40;63.90;;;;;;5007528;28;20030;-43
2022/04/02 08:16:13;;;;;;;6.38;2.03;;;7.70;63.80;;;;;;5008694;28;20037;-44
2022/04/02 08:18:44;;;;;;;4.05;2.00;;;8.20;61.80;;;;;;5007392;28;20368;-43
2022/04/02 08:21:10;;;;;;;6.82;2.33;;;8.40;60.70;;;;;;5007137;28;20029;-45
2022/04/02 08:23:38;;;;;;;6.13;2.47;;;8.40;60.90;;;;;;5007709;28;20113;-44
2022/04/02 08:26:13;;;;;;;4.78;1.80;;;8.40;59.70;;;;;;5006029;28;20042;-43
2022/04/02 08:29:09;;;;;;;4.25;2.03;;;8.30;60.10;;;;;;5009567;28;20110;-44
2022/04/02 08:32:04;;;;;;;5.13;2.10;;;8.20;61.90;;;;;;5008912;28;20089;-44
2022/04/02 08:35:04;;;;;;;5.18;2.20;;;8.20;61.60;;;;;;5008683;28;20034;-45
2022/04/02 08:37:49;;;;;;;7.10;2.85;;;7.80;62.40;;;;;;5010177;28;20033;-43
2022/04/02 08:40:46;;;;;;;5.93;2.38;;;7.80;63.70;;;;;;5009727;28;20029;-47
2022/04/02 08:43:50;;;;;;;8.68;2.40;;;7.90;65.00;;;;;;5010095;28;20030;-43
2022/04/02 08:46:35;;;;;;;8.32;2.50;;;7.90;63.90;;;;;;4992536;28;20038;-44
2022/04/02 08:49:28;;;;;;;6.45;2.33;;;7.90;63.60;;;;;;4994493;28;20038;-45
2022/04/02 08:52:43;;;;;;;4.90;2.67;;;7.80;63.20;;;;;;4994512;28;20389;-43
2022/04/02 08:55:18;;;;;;;6.78;2.80;;;7.90;63.70;;;;;;5010956;28;20028;-47
2022/04/02 08:58:17;;;;;;;4.55;2.38;;;7.80;63.20;;;;;;5012206;28;20040;-45
2022/04/02 09:01:00;;;;;;;9.25;2.40;;;7.60;63.60;;;;;;5010508;28;20097;-43
2022/04/02 09:03:59;;;;;;;7.82;2.50;;;7.70;63.00;;;;;;5012296;28;20101;-46
2022/04/02 09:06:44;;;;;;;6.22;2.25;;;7.90;62.60;;;;;;5010513;28;20503;-43
2022/04/02 09:09:33;;;;;;;7.50;2.25;;;8.00;62.50;;;;;;5011966;28;20096;-46
2022/04/02 09:12:18;;;;;;;;;;;8.00;62.90;;;;;;5011205;28;20109;-43
2022/04/02 09:15:05;;;;;;;6.70;2.63;;;8.10;63.30;;;;;;4999924;28;19913;-47
2022/04/02 09:17:47;;;;;;;4.53;2.15;;;8.00;62.60;;;;;;5007787;28;20092;-46
2022/04/02 09:20:35;;;;;;;6.50;2.05;;;8.20;62.10;;;;;;5007352;28;20026;-44
2022/04/02 09:23:42;;;;;;;4.93;2.15;;;8.20;62.60;;;;;;5005587;28;20363;-44
2022/04/02 09:26:46;;;;;;;6.75;2.15;;;8.10;61.70;;;;;;5006438;28;20082;-44
2022/04/02 09:29:27;;;;;;;6.18;2.78;;;7.90;61.20;;;;;;4999714;28;20049;-44
2022/04/02 09:32:19;;;;;;;5.78;1.80;;;7.90;61.40;;;;;;5011276;28;20029;-43
2022/04/02 09:35:30;;;;;;;4.55;2.22;;;7.80;61.90;;;;;;5012102;28;20026;-44
2022/04/02 09:38:18;;;;;;;3.53;1.70;;;8.00;62.80;;;;;;4989996;28;20444;-45
2022/04/02 09:41:08;;;;;;;3.53;1.85;;;8.20;60.50;;;;;;5009736;28;20391;-46
2022/04/02 09:43:43;;;;;;;5.85;2.00;;;8.30;59.30;;;;;;5012138;28;20481;-43
2022/04/02 09:46:29;;;;;;;8.90;2.83;;;8.30;59.90;;;;;;5009262;28;20036;-45
2022/04/02 09:49:20;;;;;;;3.97;2.05;;;8.20;61.70;;;;;;5010578;28;20097;-43
2022/04/02 09:52:20;;;;;;;7.63;2.00;;;8.30;62.40;;;;;;5007701;28;20096;-46
2022/04/02 09:55:01;;;;;;;4.90;2.05;;;8.40;62.00;;;;;;5007560;28;20056;-44
2022/04/02 09:57:59;;;;;;;4.57;2.00;;;8.50;61.20;;;;;;5009712;28;20062;-43
2022/04/02 10:00:48;;;;;;;4.00;2.10;;;8.40;57.90;;;;;;5008611;28;20467;-44
2022/04/02 10:03:57;;;;;;;4.15;2.30;;;8.60;59.40;;;;;;5004070;28;20045;-46
2022/04/02 10:06:46;;;;;;;11.50;2.47;;;8.30;58.20;;;;;;4986374;28;20508;-44
2022/04/02 10:09:14;;;;;;;6.00;2.20;;;8.20;59.90;;;;;;5010668;28;20450;-46
2022/04/02 10:12:00;;;;;;;8.95;3.15;;;8.00;59.70;;;;;;5011492;28;21276;-44
2022/04/02 10:14:32;;;;;;;3.85;2.13;;;8.00;60.80;;;;;;5011235;28;20034;-44
2022/04/02 10:17:16;;;;;;;6.50;2.35;;;8.00;58.80;;;;;;5009696;28;20029;-44
2022/04/02 10:19:48;;;;;;;5.88;2.13;;;8.00;60.90;;;;;;5010799;28;20033;-44
2022/04/02 10:22:18;;;;;;;6.50;2.40;;;7.90;58.60;;;;;;5011410;28;20021;-43
2022/04/02 10:25:08;;;;;;;5.45;2.00;;;8.10;60.50;;;;;;5011848;28;20042;-44
2022/04/02 10:27:45;;;;;;;5.85;2.85;;;8.20;59.00;;;;;;4992770;28;20023;-46
2022/04/02 10:30:16;;;;;;;6.15;2.50;;;8.10;61.00;;;;;;4992433;28;20081;-44
2022/04/02 10:35:53;;;;;;;4.75;2.58;;;8.40;59.30;;;;;;4994412;28;20057;-47
2022/04/02 10:38:28;;;;;;;4.93;2.70;;;8.60;58.70;;;;;;5010513;28;20128;-45
2022/04/02 10:41:06;;;;;;;7.63;3.13;;;8.60;57.80;;;;;;5007754;28;20026;-46
2022/04/02 10:43:57;;;;;;;3.70;2.10;;;8.50;56.80;;;;;;5009530;28;20029;-44
2022/04/02 10:46:25;;;;;;;6.03;2.20;;;8.70;57.10;;;;;;5007130;28;20034;-45
2022/04/02 10:49:14;;;;;;;5.10;2.35;;;8.50;54.20;;;;;;5008843;28;20092;-43
2022/04/02 10:51:48;;;;;;;7.80;2.60;;;8.40;55.90;;;;;;5007670;28;20085;-44
2022/04/02 10:54:34;;;;;;;5.75;2.50;;;8.50;58.20;;;;;;5011806;28;20285;-44
2022/04/02 10:57:04;;;;;;;3.92;2.55;;;8.40;54.70;;;;;;5008563;28;20072;-45
2022/04/02 10:59:31;;;;;;;7.65;2.13;;;8.30;54.10;;;;;;5008682;28;20036;-43
2022/04/02 11:02:02;;;;;;;4.97;2.15;;;8.40;55.70;;;;;;5009688;28;20030;-44
2022/04/02 11:05:03;;;;;;;5.57;3.38;;;8.40;52.60;;;;;;5007711;28;20104;-45
2022/04/02 11:07:37;;;;;;;6.97;2.13;;;8.30;54.70;;;;;;5008728;28;20026;-44
2022/04/02 11:10:07;;;;;;;3.92;2.05;;;8.50;55.80;;;;;;5007591;28;20030;-44
2022/04/02 11:12:39;;;;;;;5.03;2.50;;;8.70;52.30;;;;;;5008155;28;20041;-48
2022/04/02 11:15:20;;;;;;;3.55;2.17;;;8.40;54.60;;;;;;5008836;28;20038;-45
2022/04/02 11:17:55;;;;;;;4.85;1.90;;;8.50;54.80;;;;;;5009084;28;20053;-45
2022/04/02 11:20:39;;;;;;;7.53;2.45;;;8.30;52.60;;;;;;5010328;28;20343;-45
2022/04/02 11:23:20;;;;;;;4.40;2.13;;;7.80;54.20;;;;;;4992883;28;20034;-45
2022/04/02 11:25:54;;;;;;;6.65;2.85;;;7.80;55.30;;;;;;5010599;28;20056;-44
2022/04/02 11:28:24;;;;;;;4.97;2.58;;;7.50;54.70;;;;;;5009685;28;20068;-44
2022/04/02 11:31:12;;;;;;;5.28;2.15;;;7.60;55.60;;;;;;5010816;28;20060;-44
2022/04/02 11:33:52;;;;;;;5.45;2.00;;;7.90;54.20;;;;;;5010543;28;20045;-43
2022/04/02 11:36:59;;;;;;;4.05;2.22;;;7.90;55.40;;;;;;5009593;28;20030;-46
2022/04/02 11:40:02;;;;;;;4.97;2.42;;;8.00;56.10;;;;;;5009885;28;20335;-43
2022/04/02 11:42:38;;;;;;;7.28;3.45;;;7.90;56.90;;;;;;5006021;28;20084;-47
2022/04/02 11:45:09;;;;;;;6.18;2.38;;;7.90;57.40;;;;;;5008840;28;20048;-44
2022/04/02 11:48:08;;;;;;;4.63;2.30;;;7.90;55.70;;;;;;5009898;28;20037;-46
2022/04/02 11:50:54;;;;;;;5.25;2.92;;;7.80;55.40;;;;;;5005736;28;20078;-45
2022/04/02 11:53:31;;;;;;;4.47;2.40;;;7.90;54.90;;;;;;5005852;28;20103;-46
2022/04/02 11:56:01;;;;;;;3.92;1.95;;;7.90;54.60;;;;;;4989528;28;20043;-45
2022/04/02 11:58:39;;;;;;;4.55;2.03;;;8.00;53.00;;;;;;4993335;28;20514;-45
2022/04/02 12:01:14;;;;;;;4.18;1.63;;;8.00;53.20;;;;;;5008871;28;20169;-45
2022/04/02 12:03:41;;;;;;;3.63;1.60;;;7.90;50.50;;;;;;5006636;28;20038;-46
2022/04/02 12:06:12;;;;;;;3.63;1.60;;;8.10;53.70;;;;;;5008559;28;20443;-45
2022/04/02 12:08:41;;;;;;;6.35;2.08;;;7.90;52.00;;;;;;5008703;28;20049;-44
2022/04/02 12:11:10;;;;;;;4.22;1.88;;;8.00;53.10;;;;;;5008654;28;20026;-46
2022/04/02 12:13:37;;;;;;;2.90;1.30;;;8.00;51.70;;;;;;5006819;28;20069;-44
2022/04/02 12:16:13;;;;;;;4.13;1.77;;;7.90;48.80;;;;;;5007777;28;20145;-43
2022/04/02 12:18:57;;;;;;;6.03;2.28;;;7.90;49.50;;;;;;5005820;28;20096;-45
2022/04/02 12:21:34;;;;;;;2.92;1.40;;;7.90;50.80;;;;;;5006575;28;20104;-44
2022/04/02 12:24:03;;;;;;;5.90;1.50;;;7.90;47.90;;;;;;5005504;28;20426;-45
2022/04/02 12:26:41;;;;;;;3.08;1.58;;;7.60;51.00;;;;;;5006858;28;20078;-44
2022/04/02 12:29:16;;;;;;;3.25;1.88;;;7.60;49.60;;;;;;5007400;28;20094;-44
2022/04/02 12:31:53;;;;;;;3.67;1.80;;;7.50;51.60;;;;;;5007780;28;20537;-43
2022/04/02 12:34:22;;;;;;;4.93;2.05;;;7.40;51.20;;;;;;5004900;28;20095;-43
2022/04/02 12:37:03;;;;;;;8.77;1.65;;;7.30;51.20;;;;;;5007239;28;20022;-44
2022/04/02 12:39:32;;;;;;;5.75;2.00;;;7.10;47.10;;;;;;5006726;28;20096;-45
2022/04/02 12:41:59;;;;;;;10.35;2.25;;;7.10;51.50;;;;;;5007457;28;20025;-47
2022/04/02 12:44:28;;;;;;;3.15;1.40;;;7.10;49.40;;;;;;5005935;28;20475;-44
2022/04/02 12:47:08;;;;;;;3.50;1.95;;;7.20;52.30;;;;;;5006008;28;20096;-46
2022/04/02 12:49:37;;;;;;;4.28;2.40;;;7.20;54.40;;;;;;5007287;28;20038;-46
2022/04/02 12:52:14;;;;;;;3.42;1.70;;;7.30;58.40;;;;;;5007394;28;20026;-44
2022/04/02 12:54:52;;;;;;;5.32;1.88;;;7.20;57.00;;;;;;5006011;28;20041;-44
2022/04/02 12:57:21;;;;;;;4.10;1.90;;;7.00;55.30;;;;;;5002498;28;20628;-45
2022/04/02 12:59:55;;;;;;;5.35;2.10;;;6.80;55.10;;;;;;5005579;28;20354;-45
2022/04/02 13:02:23;;;;;;;8.02;1.70;;;6.70;58.60;;;;;;5007435;28;20022;-47
2022/04/02 13:05:13;;;;;;;4.88;2.30;;;6.90;57.40;;;;;;5006015;28;20034;-43
2022/04/02 13:07:51;;;;;;;4.97;1.92;;;6.90;52.90;;;;;;5005853;28;20078;-45
2022/04/02 13:10:18;;;;;;;5.28;2.17;;;6.90;57.00;;;;;;5008200;28;20100;-44
2022/04/02 13:12:53;;;;;;;6.13;1.95;;;6.60;56.80;;;;;;5006797;28;20060;-46
2022/04/02 13:15:32;;;;;;;3.80;1.83;;;6.60;54.30;;;;;;5008358;28;20095;-44
2022/04/02 13:20:48;;;;;;;3.95;1.60;;;6.40;55.10;;;;;;5008444;28;20536;-44
2022/04/02 13:23:54;;;;;;;3.55;1.80;;;6.80;53.90;;;;;;5008944;28;20387;-45
2022/04/02 13:26:38;;;;;;;4.32;1.58;;;7.20;51.00;;;;;;5007905;28;20061;-46
2022/04/02 13:29:38;;;;;;;5.25;1.63;;;7.40;50.80;;;;;;5007587;28;20443;-45
2022/04/02 13:32:23;;;;;;;3.40;1.70;;;7.40;50.30;;;;;;5000845;28;20041;-46
2022/04/02 13:35:22;;;;;;;2.92;1.40;;;6.90;51.80;;;;;;5011825;28;20324;-46
2022/04/02 13:38:26;;;;;;;3.33;1.27;;;6.70;54.40;;;;;;5011735;28;20062;-44
2022/04/02 13:40:56;;;;;;;3.38;1.38;;;6.40;50.00;;;;;;5001994;28;20037;-44